sensor_id;sensor_type;location;lat;lon;timestamp;pressure;altitude;pressure_sealevel;temperature;humidity
59877;BME280;45749;51.140;17.184;2023-06-19T00:00:07;100000.06;;;16.79;80.94
59877;BME280;45749;51.140;17.184;2023-06-19T00:02:41;100019.91;;;16.85;80.64
59877;BME280;45749;51.140;17.184;2023-06-19T00:05:07;100010.53;;;16.81;80.40
59877;BME280;45749;51.140;17.184;2023-06-19T00:07:33;100014.06;;;16.81;80.49
59877;BME280;45749;51.140;17.184;2023-06-19T00:09:58;100018.03;;;16.77;81.03
59877;BME280;45749;51.140;17.184;2023-06-19T00:12:24;99996.97;;;16.66;81.03
59877;BME280;45749;51.140;17.184;2023-06-19T00:14:49;100015.53;;;16.76;80.71
59877;BME280;45749;51.140;17.184;2023-06-19T00:17:14;100019.16;;;16.75;80.97
59877;BME280;45749;51.140;17.184;2023-06-19T00:19:43;100017.66;;;16.72;81.02
59877;BME280;45749;51.140;17.184;2023-06-19T00:22:08;100010.81;;;16.70;80.90
59877;BME280;45749;51.140;17.184;2023-06-19T00:24:34;100010.59;;;16.63;81.00
59877;BME280;45749;51.140;17.184;2023-06-19T00:26:59;99995.03;;;16.50;81.19
59877;BME280;45749;51.140;17.184;2023-06-19T00:29:31;100010.22;;;16.58;81.16
59877;BME280;45749;51.140;17.184;2023-06-19T00:31:57;100008.88;;;16.54;81.48
59877;BME280;45749;51.140;17.184;2023-06-19T00:34:22;100004.53;;;16.53;81.72
59877;BME280;45749;51.140;17.184;2023-06-19T00:36:51;100006.00;;;16.47;81.96
59877;BME280;45749;51.140;17.184;2023-06-19T00:39:21;100012.16;;;16.48;81.88
59877;BME280;45749;51.140;17.184;2023-06-19T00:41:47;100005.47;;;16.44;81.77
59877;BME280;45749;51.140;17.184;2023-06-19T00:44:13;99999.78;;;16.38;81.98
59877;BME280;45749;51.140;17.184;2023-06-19T00:46:40;100006.47;;;16.42;81.95
59877;BME280;45749;51.140;17.184;2023-06-19T00:49:07;100003.13;;;16.40;82.02
59877;BME280;45749;51.140;17.184;2023-06-19T00:51:32;99991.94;;;16.29;81.90
59877;BME280;45749;51.140;17.184;2023-06-19T00:53:58;99997.47;;;16.35;82.64
59877;BME280;45749;51.140;17.184;2023-06-19T00:56:24;100002.41;;;16.30;82.52
59877;BME280;45749;51.140;17.184;2023-06-19T00:58:51;99992.91;;;16.28;82.45
59877;BME280;45749;51.140;17.184;2023-06-19T01:01:17;99992.22;;;16.26;82.83
59877;BME280;45749;51.140;17.184;2023-06-19T01:03:43;99994.34;;;16.22;82.61
59877;BME280;45749;51.140;17.184;2023-06-19T01:06:14;99992.34;;;16.16;82.91
59877;BME280;45749;51.140;17.184;2023-06-19T01:08:54;100006.59;;;16.15;83.10
59877;BME280;45749;51.140;17.184;2023-06-19T01:11:23;99999.25;;;16.09;82.92
59877;BME280;45749;51.140;17.184;2023-06-19T01:13:55;99997.88;;;16.05;82.85
59877;BME280;45749;51.140;17.184;2023-06-19T01:16:23;99993.03;;;16.00;82.75
59877;BME280;45749;51.140;17.184;2023-06-19T01:18:48;99982.63;;;15.89;83.22
59877;BME280;45749;51.140;17.184;2023-06-19T01:21:16;99985.81;;;15.92;83.16
59877;BME280;45749;51.140;17.184;2023-06-19T01:23:42;99998.59;;;15.89;83.28
59877;BME280;45749;51.140;17.184;2023-06-19T01:26:08;100000.41;;;15.88;83.26
59877;BME280;45749;51.140;17.184;2023-06-19T01:28:40;99994.25;;;15.88;83.09
59877;BME280;45749;51.140;17.184;2023-06-19T01:31:11;99992.59;;;15.87;83.24
59877;BME280;45749;51.140;17.184;2023-06-19T01:33:38;99985.38;;;15.79;83.38
59877;BME280;45749;51.140;17.184;2023-06-19T01:36:06;99991.75;;;15.86;83.59
59877;BME280;45749;51.140;17.184;2023-06-19T01:38:33;99984.91;;;15.84;83.62
59877;BME280;45749;51.140;17.184;2023-06-19T01:41:00;99990.38;;;15.82;83.23
59877;BME280;45749;51.140;17.184;2023-06-19T01:43:27;99995.03;;;15.80;83.53
59877;BME280;45749;51.140;17.184;2023-06-19T01:45:55;100002.03;;;15.81;83.63
59877;BME280;45749;51.140;17.184;2023-06-19T01:48:20;99990.31;;;15.74;83.53
59877;BME280;45749;51.140;17.184;2023-06-19T01:50:48;99998.00;;;15.77;83.45
59877;BME280;45749;51.140;17.184;2023-06-19T01:53:14;100003.63;;;15.74;83.53
59877;BME280;45749;51.140;17.184;2023-06-19T01:55:39;100001.56;;;15.68;83.75
59877;BME280;45749;51.140;17.184;2023-06-19T01:58:05;99990.38;;;15.64;84.06
59877;BME280;45749;51.140;17.184;2023-06-19T02:00:30;99995.16;;;15.61;84.22
59877;BME280;45749;51.140;17.184;2023-06-19T02:02:57;99993.78;;;15.57;83.84
59877;BME280;45749;51.140;17.184;2023-06-19T02:05:22;100001.59;;;15.58;83.75
59877;BME280;45749;51.140;17.184;2023-06-19T02:07:48;100011.41;;;15.58;83.87
59877;BME280;45749;51.140;17.184;2023-06-19T02:10:13;99995.59;;;15.56;84.32
59877;BME280;45749;51.140;17.184;2023-06-19T02:12:38;99999.41;;;15.54;84.20
59877;BME280;45749;51.140;17.184;2023-06-19T02:15:04;100005.56;;;15.54;84.15
59877;BME280;45749;51.140;17.184;2023-06-19T02:17:29;99981.47;;;15.38;84.28
59877;BME280;45749;51.140;17.184;2023-06-19T02:19:54;99999.72;;;15.51;84.56
59877;BME280;45749;51.140;17.184;2023-06-19T02:22:20;99999.31;;;15.45;84.27
59877;BME280;45749;51.140;17.184;2023-06-19T02:24:45;99988.75;;;15.36;84.20
59877;BME280;45749;51.140;17.184;2023-06-19T02:27:10;99989.03;;;15.33;84.59
59877;BME280;45749;51.140;17.184;2023-06-19T02:29:36;100007.22;;;15.37;84.77
59877;BME280;45749;51.140;17.184;2023-06-19T02:32:02;100004.88;;;15.34;84.63
59877;BME280;45749;51.140;17.184;2023-06-19T02:34:28;99991.47;;;15.26;84.92
59877;BME280;45749;51.140;17.184;2023-06-19T02:36:53;100002.78;;;15.28;84.77
59877;BME280;45749;51.140;17.184;2023-06-19T02:39:18;99992.38;;;15.17;84.71
59877;BME280;45749;51.140;17.184;2023-06-19T02:41:44;99997.25;;;15.21;85.13
59877;BME280;45749;51.140;17.184;2023-06-19T02:44:11;99999.38;;;15.18;84.78
59877;BME280;45749;51.140;17.184;2023-06-19T02:46:37;99980.81;;;15.08;84.73
59877;BME280;45749;51.140;17.184;2023-06-19T02:49:02;99997.00;;;15.15;84.84
59877;BME280;45749;51.140;17.184;2023-06-19T02:51:27;100000.66;;;15.14;85.06
59877;BME280;45749;51.140;17.184;2023-06-19T02:53:53;99993.28;;;15.08;84.83
59877;BME280;45749;51.140;17.184;2023-06-19T02:56:18;99992.56;;;15.06;84.98
59877;BME280;45749;51.140;17.184;2023-06-19T02:58:43;99989.22;;;15.04;85.36
59877;BME280;45749;51.140;17.184;2023-06-19T03:01:09;100006.94;;;15.13;85.50
59877;BME280;45749;51.140;17.184;2023-06-19T03:03:34;100006.25;;;15.11;85.35
59877;BME280;45749;51.140;17.184;2023-06-19T03:06:06;100008.06;;;15.10;85.45
59877;BME280;45749;51.140;17.184;2023-06-19T03:08:36;100011.72;;;15.09;85.48
59877;BME280;45749;51.140;17.184;2023-06-19T03:11:01;100007.81;;;15.04;85.78
59877;BME280;45749;51.140;17.184;2023-06-19T03:13:31;100018.84;;;15.09;85.66
59877;BME280;45749;51.140;17.184;2023-06-19T03:15:57;100014.66;;;15.06;85.67
59877;BME280;45749;51.140;17.184;2023-06-19T03:18:22;100019.56;;;15.11;85.83
59877;BME280;45749;51.140;17.184;2023-06-19T03:20:48;100019.09;;;15.15;85.53
59877;BME280;45749;51.140;17.184;2023-06-19T03:23:13;100022.28;;;15.19;85.45
59877;BME280;45749;51.140;17.184;2023-06-19T03:25:38;100011.00;;;15.17;85.74
59877;BME280;45749;51.140;17.184;2023-06-19T03:28:08;99993.66;;;15.13;85.65
59877;BME280;45749;51.140;17.184;2023-06-19T03:30:33;100005.06;;;15.23;85.91
59877;BME280;45749;51.140;17.184;2023-06-19T03:32:58;99986.97;;;15.09;85.72
59877;BME280;45749;51.140;17.184;2023-06-19T03:35:23;100002.03;;;15.18;85.70
59877;BME280;45749;51.140;17.184;2023-06-19T03:37:49;100011.53;;;15.20;86.08
59877;BME280;45749;51.140;17.184;2023-06-19T03:40:14;100003.69;;;15.19;86.45
59877;BME280;45749;51.140;17.184;2023-06-19T03:42:40;100002.84;;;15.18;86.46
59877;BME280;45749;51.140;17.184;2023-06-19T03:45:06;100005.34;;;15.20;86.47
59877;BME280;45749;51.140;17.184;2023-06-19T03:47:31;100005.34;;;15.20;86.78
59877;BME280;45749;51.140;17.184;2023-06-19T03:49:57;100008.88;;;15.20;86.85
59877;BME280;45749;51.140;17.184;2023-06-19T03:52:22;99998.53;;;15.17;87.14
59877;BME280;45749;51.140;17.184;2023-06-19T03:54:47;99992.38;;;15.17;87.31
59877;BME280;45749;51.140;17.184;2023-06-19T03:57:12;100005.75;;;15.25;87.55
59877;BME280;45749;51.140;17.184;2023-06-19T03:59:38;99999.75;;;15.23;87.41
59877;BME280;45749;51.140;17.184;2023-06-19T04:02:03;99991.75;;;15.23;87.18
59877;BME280;45749;51.140;17.184;2023-06-19T04:04:29;100004.88;;;15.34;86.92
59877;BME280;45749;51.140;17.184;2023-06-19T04:06:54;99996.06;;;15.34;87.55
59877;BME280;45749;51.140;17.184;2023-06-19T04:09:19;99997.97;;;15.41;87.87
59877;BME280;45749;51.140;17.184;2023-06-19T04:11:44;100004.28;;;15.40;88.01
59877;BME280;45749;51.140;17.184;2023-06-19T04:14:10;100011.31;;;15.49;88.09
59877;BME280;45749;51.140;17.184;2023-06-19T04:16:36;100017.03;;;15.55;87.67
59877;BME280;45749;51.140;17.184;2023-06-19T04:19:01;100011.88;;;15.53;87.96
59877;BME280;45749;51.140;17.184;2023-06-19T04:21:26;100015.44;;;15.62;88.48
59877;BME280;45749;51.140;17.184;2023-06-19T04:23:51;100010.53;;;15.67;88.88
59877;BME280;45749;51.140;17.184;2023-06-19T04:26:17;100002.94;;;15.72;89.10
59877;BME280;45749;51.140;17.184;2023-06-19T04:28:43;99998.59;;;15.71;89.14
59877;BME280;45749;51.140;17.184;2023-06-19T04:31:08;100005.38;;;15.83;89.02
59877;BME280;45749;51.140;17.184;2023-06-19T04:33:33;100000.56;;;15.87;88.98
59877;BME280;45749;51.140;17.184;2023-06-19T04:35:59;100004.28;;;15.94;89.67
59877;BME280;45749;51.140;17.184;2023-06-19T04:38:25;100003.16;;;15.97;89.58
59877;BME280;45749;51.140;17.184;2023-06-19T04:40:51;100012.88;;;16.06;89.77
59877;BME280;45749;51.140;17.184;2023-06-19T04:43:17;100010.56;;;16.11;89.44
59877;BME280;45749;51.140;17.184;2023-06-19T04:45:42;100003.59;;;16.10;89.30
59877;BME280;45749;51.140;17.184;2023-06-19T04:48:07;100014.50;;;16.25;89.40
59877;BME280;45749;51.140;17.184;2023-06-19T04:50:33;100013.06;;;16.30;89.53
59877;BME280;45749;51.140;17.184;2023-06-19T04:52:58;100007.56;;;16.32;89.66
59877;BME280;45749;51.140;17.184;2023-06-19T04:55:23;100014.63;;;16.41;89.63
59877;BME280;45749;51.140;17.184;2023-06-19T04:57:50;100011.81;;;16.42;89.84
59877;BME280;45749;51.140;17.184;2023-06-19T05:00:16;100019.84;;;16.51;90.17
59877;BME280;45749;51.140;17.184;2023-06-19T05:02:44;100010.72;;;16.53;90.71
59877;BME280;45749;51.140;17.184;2023-06-19T05:05:12;100016.56;;;16.57;90.14
59877;BME280;45749;51.140;17.184;2023-06-19T05:07:38;100010.41;;;16.56;90.89
59877;BME280;45749;51.140;17.184;2023-06-19T05:10:04;100008.56;;;16.57;90.93
59877;BME280;45749;51.140;17.184;2023-06-19T05:12:29;100024.81;;;16.72;91.12
59877;BME280;45749;51.140;17.184;2023-06-19T05:14:54;100023.81;;;16.73;91.22
59877;BME280;45749;51.140;17.184;2023-06-19T05:17:20;100024.03;;;16.79;91.77
59877;BME280;45749;51.140;17.184;2023-06-19T05:19:45;100012.88;;;16.76;92.10
59877;BME280;45749;51.140;17.184;2023-06-19T05:22:10;100019.03;;;16.84;92.26
59877;BME280;45749;51.140;17.184;2023-06-19T05:24:35;100022.41;;;16.86;92.48
59877;BME280;45749;51.140;17.184;2023-06-19T05:27:01;100024.75;;;16.90;92.64
59877;BME280;45749;51.140;17.184;2023-06-19T05:29:26;100016.25;;;16.94;92.57
59877;BME280;45749;51.140;17.184;2023-06-19T05:31:51;100034.97;;;17.02;92.50
59877;BME280;45749;51.140;17.184;2023-06-19T05:34:17;100035.47;;;17.06;92.73
59877;BME280;45749;51.140;17.184;2023-06-19T05:36:42;100024.31;;;17.02;92.63
59877;BME280;45749;51.140;17.184;2023-06-19T05:39:10;100028.50;;;17.05;92.79
59877;BME280;45749;51.140;17.184;2023-06-19T05:41:35;100031.19;;;17.13;92.32
59877;BME280;45749;51.140;17.184;2023-06-19T05:44:00;100035.69;;;17.13;92.34
59877;BME280;45749;51.140;17.184;2023-06-19T05:46:26;100050.88;;;17.20;91.74
59877;BME280;45749;51.140;17.184;2023-06-19T05:48:52;100026.66;;;17.05;91.83
59877;BME280;45749;51.140;17.184;2023-06-19T05:51:19;100054.41;;;17.29;92.15
59877;BME280;45749;51.140;17.184;2023-06-19T05:53:45;100066.91;;;17.37;91.71
59877;BME280;45749;51.140;17.184;2023-06-19T05:56:11;100065.28;;;17.44;91.32
59877;BME280;45749;51.140;17.184;2023-06-19T05:58:37;100066.31;;;17.51;91.15
59877;BME280;45749;51.140;17.184;2023-06-19T06:01:02;100057.81;;;17.55;90.79
59877;BME280;45749;51.140;17.184;2023-06-19T06:03:28;100063.50;;;17.61;89.96
59877;BME280;45749;51.140;17.184;2023-06-19T06:05:56;100062.69;;;17.68;90.38
59877;BME280;45749;51.140;17.184;2023-06-19T06:08:28;100058.03;;;17.70;90.52
59877;BME280;45749;51.140;17.184;2023-06-19T06:10:53;100064.59;;;17.84;90.68
59877;BME280;45749;51.140;17.184;2023-06-19T06:13:19;100063.75;;;17.92;90.81
59877;BME280;45749;51.140;17.184;2023-06-19T06:15:44;100073.59;;;17.99;90.66
59877;BME280;45749;51.140;17.184;2023-06-19T06:18:09;100069.44;;;18.05;90.02
59877;BME280;45749;51.140;17.184;2023-06-19T06:20:34;100076.78;;;18.11;90.02
59877;BME280;45749;51.140;17.184;2023-06-19T06:23:00;100069.28;;;18.15;89.60
59877;BME280;45749;51.140;17.184;2023-06-19T06:25:25;100067.78;;;18.20;89.93
59877;BME280;45749;51.140;17.184;2023-06-19T06:27:50;100074.44;;;18.24;89.16
59877;BME280;45749;51.140;17.184;2023-06-19T06:30:16;100081.28;;;18.35;88.63
59877;BME280;45749;51.140;17.184;2023-06-19T06:32:42;100084.31;;;18.40;88.75
59877;BME280;45749;51.140;17.184;2023-06-19T06:35:07;100074.78;;;18.46;88.09
59877;BME280;45749;51.140;17.184;2023-06-19T06:37:32;100081.78;;;18.55;88.65
59877;BME280;45749;51.140;17.184;2023-06-19T06:39:58;100090.13;;;18.60;88.80
59877;BME280;45749;51.140;17.184;2023-06-19T06:42:23;100093.44;;;18.70;88.55
59877;BME280;45749;51.140;17.184;2023-06-19T06:44:48;100095.16;;;18.80;88.73
59877;BME280;45749;51.140;17.184;2023-06-19T06:47:13;100090.94;;;18.85;89.07
59877;BME280;45749;51.140;17.184;2023-06-19T06:49:39;100097.44;;;18.99;88.72
59877;BME280;45749;51.140;17.184;2023-06-19T06:52:05;100091.91;;;19.09;87.52
59877;BME280;45749;51.140;17.184;2023-06-19T06:54:31;100093.69;;;19.16;87.81
59877;BME280;45749;51.140;17.184;2023-06-19T06:56:56;100094.00;;;19.21;87.90
59877;BME280;45749;51.140;17.184;2023-06-19T06:59:24;100099.16;;;19.31;87.72
59877;BME280;45749;51.140;17.184;2023-06-19T07:01:50;100097.47;;;19.38;87.50
59877;BME280;45749;51.140;17.184;2023-06-19T07:04:15;100092.59;;;19.42;87.12
59877;BME280;45749;51.140;17.184;2023-06-19T07:06:40;100107.59;;;19.51;87.16
59877;BME280;45749;51.140;17.184;2023-06-19T07:09:05;100105.91;;;19.58;87.43
59877;BME280;45749;51.140;17.184;2023-06-19T07:11:31;100104.22;;;19.65;87.67
59877;BME280;45749;51.140;17.184;2023-06-19T07:13:56;100109.69;;;19.72;87.79
59877;BME280;45749;51.140;17.184;2023-06-19T07:16:21;100104.16;;;19.74;87.00
59877;BME280;45749;51.140;17.184;2023-06-19T07:18:47;100107.78;;;19.81;86.56
59877;BME280;45749;51.140;17.184;2023-06-19T07:21:13;100102.75;;;19.86;86.51
59877;BME280;45749;51.140;17.184;2023-06-19T07:23:41;100098.53;;;19.91;86.36
59877;BME280;45749;51.140;17.184;2023-06-19T07:26:07;100102.19;;;19.99;85.85
59877;BME280;45749;51.140;17.184;2023-06-19T07:28:33;100101.81;;;20.02;86.14
59877;BME280;45749;51.140;17.184;2023-06-19T07:31:01;100098.25;;;20.09;86.74
59877;BME280;45749;51.140;17.184;2023-06-19T07:33:26;100094.50;;;20.19;86.23
59877;BME280;45749;51.140;17.184;2023-06-19T07:35:51;100094.63;;;20.25;85.92
59877;BME280;45749;51.140;17.184;2023-06-19T07:38:16;100095.19;;;20.35;86.45
59877;BME280;45749;51.140;17.184;2023-06-19T07:40:42;100102.31;;;20.43;85.28
59877;BME280;45749;51.140;17.184;2023-06-19T07:43:07;100098.91;;;20.49;85.31
59877;BME280;45749;51.140;17.184;2023-06-19T07:45:32;100097.22;;;20.56;85.57
59877;BME280;45749;51.140;17.184;2023-06-19T07:47:58;100111.38;;;20.65;85.41
59877;BME280;45749;51.140;17.184;2023-06-19T07:50:23;100100.13;;;20.70;85.08
59877;BME280;45749;51.140;17.184;2023-06-19T07:52:49;100102.34;;;20.81;85.05
59877;BME280;45749;51.140;17.184;2023-06-19T07:55:14;100093.94;;;20.84;85.16
59877;BME280;45749;51.140;17.184;2023-06-19T07:57:39;100091.00;;;20.94;84.94
59877;BME280;45749;51.140;17.184;2023-06-19T08:00:05;100099.59;;;21.04;84.81
59877;BME280;45749;51.140;17.184;2023-06-19T08:02:36;100100.88;;;21.08;84.31
59877;BME280;45749;51.140;17.184;2023-06-19T08:05:02;100097.75;;;21.19;85.32
59877;BME280;45749;51.140;17.184;2023-06-19T08:07:28;100090.41;;;21.28;84.54
59877;BME280;45749;51.140;17.184;2023-06-19T08:09:53;100088.31;;;21.38;84.68
59877;BME280;45749;51.140;17.184;2023-06-19T08:12:18;100087.00;;;21.49;83.75
59877;BME280;45749;51.140;17.184;2023-06-19T08:14:44;100088.75;;;21.57;83.82
59877;BME280;45749;51.140;17.184;2023-06-19T08:17:09;100087.78;;;21.64;84.61
59877;BME280;45749;51.140;17.184;2023-06-19T08:19:34;100083.53;;;21.70;82.71
59877;BME280;45749;51.140;17.184;2023-06-19T08:21:59;100096.44;;;21.81;83.20
59877;BME280;45749;51.140;17.184;2023-06-19T08:24:25;100089.69;;;21.85;83.11
59877;BME280;45749;51.140;17.184;2023-06-19T08:26:50;100091.22;;;21.94;83.83
59877;BME280;45749;51.140;17.184;2023-06-19T08:29:17;100093.19;;;22.07;84.69
59877;BME280;45749;51.140;17.184;2023-06-19T08:31:43;100086.53;;;22.18;84.10
59877;BME280;45749;51.140;17.184;2023-06-19T08:34:08;100086.00;;;22.29;82.63
59877;BME280;45749;51.140;17.184;2023-06-19T08:36:35;100080.69;;;22.36;83.13
59877;BME280;45749;51.140;17.184;2023-06-19T08:39:00;100084.06;;;22.44;83.40
59877;BME280;45749;51.140;17.184;2023-06-19T08:41:26;100080.19;;;22.54;81.43
59877;BME280;45749;51.140;17.184;2023-06-19T08:43:52;100090.81;;;22.62;80.97
59877;BME280;45749;51.140;17.184;2023-06-19T08:46:18;100084.84;;;22.66;80.01
59877;BME280;45749;51.140;17.184;2023-06-19T08:48:44;100073.13;;;22.74;81.11
59877;BME280;45749;51.140;17.184;2023-06-19T08:51:10;100075.84;;;22.81;80.78
59877;BME280;45749;51.140;17.184;2023-06-19T08:53:44;100074.28;;;22.93;80.72
59877;BME280;45749;51.140;17.184;2023-06-19T08:56:10;100076.84;;;23.01;78.26
59877;BME280;45749;51.140;17.184;2023-06-19T08:58:35;100075.00;;;23.08;78.62
59877;BME280;45749;51.140;17.184;2023-06-19T09:01:01;100068.00;;;23.14;78.43
59877;BME280;45749;51.140;17.184;2023-06-19T09:03:27;100077.34;;;23.18;78.77
59877;BME280;45749;51.140;17.184;2023-06-19T09:05:52;100080.91;;;23.32;77.24
59877;BME280;45749;51.140;17.184;2023-06-19T09:08:22;100071.63;;;23.41;79.23
59877;BME280;45749;51.140;17.184;2023-06-19T09:11:04;100070.88;;;23.54;79.34
59877;BME280;45749;51.140;17.184;2023-06-19T09:13:30;100080.44;;;23.63;77.49
59877;BME280;45749;51.140;17.184;2023-06-19T09:15:59;100068.44;;;23.72;76.67
59877;BME280;45749;51.140;17.184;2023-06-19T09:18:25;100077.41;;;23.79;77.62
59877;BME280;45749;51.140;17.184;2023-06-19T09:20:53;100068.69;;;23.84;75.55
59877;BME280;45749;51.140;17.184;2023-06-19T09:23:19;100068.09;;;23.95;77.20
59877;BME280;45749;51.140;17.184;2023-06-19T09:25:49;100063.13;;;23.99;75.98
59877;BME280;45749;51.140;17.184;2023-06-19T09:28:24;100068.72;;;24.10;74.62
59877;BME280;45749;51.140;17.184;2023-06-19T09:31:01;100071.66;;;24.22;73.22
59877;BME280;45749;51.140;17.184;2023-06-19T09:33:28;100067.91;;;24.30;74.91
59877;BME280;45749;51.140;17.184;2023-06-19T09:35:56;100063.97;;;24.39;73.16
59877;BME280;45749;51.140;17.184;2023-06-19T09:38:46;100067.13;;;24.49;71.63
59877;BME280;45749;51.140;17.184;2023-06-19T09:41:10;100062.94;;;24.60;69.94
59877;BME280;45749;51.140;17.184;2023-06-19T09:46:05;100066.25;;;24.82;69.21
59877;BME280;45749;51.140;17.184;2023-06-19T09:48:32;100060.63;;;24.84;69.11
59877;BME280;45749;51.140;17.184;2023-06-19T09:51:05;100064.75;;;24.93;67.29
59877;BME280;45749;51.140;17.184;2023-06-19T09:53:34;100059.34;;;24.99;64.85
59877;BME280;45749;51.140;17.184;2023-06-19T09:56:00;100048.94;;;25.03;66.52
59877;BME280;45749;51.140;17.184;2023-06-19T09:58:26;100047.06;;;25.17;67.53
59877;BME280;45749;51.140;17.184;2023-06-19T10:00:53;100047.00;;;25.30;68.38
59877;BME280;45749;51.140;17.184;2023-06-19T10:03:20;100039.69;;;25.44;66.78
59877;BME280;45749;51.140;17.184;2023-06-19T10:05:45;100032.81;;;25.48;64.24
59877;BME280;45749;51.140;17.184;2023-06-19T10:08:11;100051.41;;;25.63;64.47
59877;BME280;45749;51.140;17.184;2023-06-19T10:10:46;100054.47;;;25.73;65.29
59877;BME280;45749;51.140;17.184;2023-06-19T10:13:14;100054.88;;;25.83;63.98
59877;BME280;45749;51.140;17.184;2023-06-19T10:15:41;100053.31;;;26.01;64.98
59877;BME280;45749;51.140;17.184;2023-06-19T10:18:08;100053.41;;;26.12;64.03
59877;BME280;45749;51.140;17.184;2023-06-19T10:20:37;100046.16;;;26.13;64.58
59877;BME280;45749;51.140;17.184;2023-06-19T10:23:18;100038.19;;;26.18;62.71
59877;BME280;45749;51.140;17.184;2023-06-19T10:25:45;100041.84;;;26.30;63.20
59877;BME280;45749;51.140;17.184;2023-06-19T10:28:24;100036.50;;;26.42;63.48
59877;BME280;45749;51.140;17.184;2023-06-19T10:31:00;100037.03;;;26.57;61.87
59877;BME280;45749;51.140;17.184;2023-06-19T10:33:28;100024.13;;;26.59;62.25
59877;BME280;45749;51.140;17.184;2023-06-19T10:35:54;100025.03;;;26.72;60.81
59877;BME280;45749;51.140;17.184;2023-06-19T10:38:19;100033.91;;;26.79;59.90
59877;BME280;45749;51.140;17.184;2023-06-19T10:40:45;100022.25;;;26.78;59.03
59877;BME280;45749;51.140;17.184;2023-06-19T10:43:31;100028.56;;;26.90;58.62
59877;BME280;45749;51.140;17.184;2023-06-19T10:45:57;100025.34;;;27.00;59.69
59877;BME280;45749;51.140;17.184;2023-06-19T10:48:24;100020.66;;;27.07;59.56
59877;BME280;45749;51.140;17.184;2023-06-19T10:50:50;100036.78;;;27.21;57.03
59877;BME280;45749;51.140;17.184;2023-06-19T10:53:24;100035.66;;;27.28;56.11
59877;BME280;45749;51.140;17.184;2023-06-19T10:55:57;100036.16;;;27.37;56.84
59877;BME280;45749;51.140;17.184;2023-06-19T10:58:24;100033.00;;;27.40;56.58
59877;BME280;45749;51.140;17.184;2023-06-19T11:00:49;100026.53;;;27.41;54.25
59877;BME280;45749;51.140;17.184;2023-06-19T11:03:15;100032.63;;;27.36;54.07
59877;BME280;45749;51.140;17.184;2023-06-19T11:05:44;100028.19;;;27.42;53.90
59877;BME280;45749;51.140;17.184;2023-06-19T11:08:09;100020.06;;;27.42;55.45
59877;BME280;45749;51.140;17.184;2023-06-19T11:10:35;100030.91;;;27.54;52.61
59877;BME280;45749;51.140;17.184;2023-06-19T11:13:00;100034.25;;;27.56;52.79
59877;BME280;45749;51.140;17.184;2023-06-19T11:15:44;100029.19;;;27.59;54.38
59877;BME280;45749;51.140;17.184;2023-06-19T11:18:09;100029.78;;;27.62;50.58
59877;BME280;45749;51.140;17.184;2023-06-19T11:20:44;100025.75;;;27.52;50.63
59877;BME280;45749;51.140;17.184;2023-06-19T11:23:10;100030.56;;;27.50;53.11
59877;BME280;45749;51.140;17.184;2023-06-19T11:25:37;100027.28;;;27.48;51.75
59877;BME280;45749;51.140;17.184;2023-06-19T11:28:13;100029.97;;;27.48;51.87
59877;BME280;45749;51.140;17.184;2023-06-19T11:30:39;100017.72;;;27.46;51.73
59877;BME280;45749;51.140;17.184;2023-06-19T11:33:15;100024.94;;;27.52;51.93
59877;BME280;45749;51.140;17.184;2023-06-19T11:35:47;100025.97;;;27.51;50.27
59877;BME280;45749;51.140;17.184;2023-06-19T11:38:17;100021.41;;;27.51;50.86
59877;BME280;45749;51.140;17.184;2023-06-19T11:40:43;100013.47;;;27.50;49.53
59877;BME280;45749;51.140;17.184;2023-06-19T11:43:08;100018.69;;;27.51;49.36
59877;BME280;45749;51.140;17.184;2023-06-19T11:45:44;100014.31;;;27.50;49.54
59877;BME280;45749;51.140;17.184;2023-06-19T11:48:10;100015.13;;;27.51;47.97
59877;BME280;45749;51.140;17.184;2023-06-19T11:50:36;100011.75;;;27.55;48.37
59877;BME280;45749;51.140;17.184;2023-06-19T11:53:02;100009.16;;;27.60;48.42
59877;BME280;45749;51.140;17.184;2023-06-19T11:55:28;100009.91;;;27.68;49.76
59877;BME280;45749;51.140;17.184;2023-06-19T11:57:53;100015.84;;;27.76;48.11
59877;BME280;45749;51.140;17.184;2023-06-19T12:00:18;100012.91;;;27.78;49.56
59877;BME280;45749;51.140;17.184;2023-06-19T12:02:44;100009.50;;;27.82;47.60
59877;BME280;45749;51.140;17.184;2023-06-19T12:05:10;100012.81;;;27.96;47.42
59877;BME280;45749;51.140;17.184;2023-06-19T12:07:36;99999.41;;;28.01;49.02
59877;BME280;45749;51.140;17.184;2023-06-19T12:10:02;100009.56;;;28.18;48.48
59877;BME280;45749;51.140;17.184;2023-06-19T12:12:28;100010.63;;;28.17;48.20
59877;BME280;45749;51.140;17.184;2023-06-19T12:14:54;100004.69;;;28.20;46.50
59877;BME280;45749;51.140;17.184;2023-06-19T12:17:19;100013.78;;;28.25;48.46
59877;BME280;45749;51.140;17.184;2023-06-19T12:19:47;99987.03;;;28.29;46.74
59877;BME280;45749;51.140;17.184;2023-06-19T12:22:13;99996.34;;;28.33;46.03
59877;BME280;45749;51.140;17.184;2023-06-19T12:24:39;99998.81;;;28.35;44.99
59877;BME280;45749;51.140;17.184;2023-06-19T12:27:05;100001.66;;;28.28;46.16
59877;BME280;45749;51.140;17.184;2023-06-19T12:29:30;100003.75;;;28.26;45.68
59877;BME280;45749;51.140;17.184;2023-06-19T12:32:02;99995.38;;;28.16;45.11
59877;BME280;45749;51.140;17.184;2023-06-19T12:34:28;99988.66;;;28.06;45.44
59877;BME280;45749;51.140;17.184;2023-06-19T12:36:53;100000.34;;;28.07;46.40
59877;BME280;45749;51.140;17.184;2023-06-19T12:39:20;99993.25;;;28.06;46.57
59877;BME280;45749;51.140;17.184;2023-06-19T12:41:45;100000.09;;;28.09;46.50